createdAt,value
2022-11-25T00:01:23.185Z,61.17
2022-11-25T00:03:54.862Z,58.13
2022-11-25T00:06:24.720Z,61.53
2022-11-25T00:08:59.469Z,56.37
2022-11-25T00:11:28.383Z,54.10
2022-11-25T00:13:57.360Z,50.13
2022-11-25T00:16:28.684Z,60.20
2022-11-25T00:18:58.571Z,55.47
2022-11-25T00:21:35.403Z,51.10
2022-11-25T00:24:05.804Z,59.00
2022-11-25T00:26:35.063Z,49.23
2022-11-25T00:29:05.448Z,63.57
2022-11-25T00:31:36.979Z,57.10
2022-11-25T00:34:04.709Z,54.17
2022-11-25T00:36:35.767Z,54.10
2022-11-25T00:39:06.332Z,53.00
2022-11-25T00:41:52.801Z,51.50
2022-11-25T00:44:41.010Z,60.03
2022-11-25T00:47:19.790Z,76.53
2022-11-25T00:49:52.441Z,44.37
2022-11-25T00:52:22.377Z,57.03
2022-11-25T00:54:50.457Z,54.87
2022-11-25T00:57:20.746Z,59.93
2022-11-25T00:59:49.135Z,62.90
2022-11-25T01:02:18.045Z,50.03
2022-11-25T01:04:46.556Z,60.93
2022-11-25T01:07:14.707Z,54.40
2022-11-25T01:09:41.872Z,48.50
2022-11-25T01:12:09.461Z,48.80
2022-11-25T01:14:37.428Z,53.80
2022-11-25T01:17:05.240Z,59.37
2022-11-25T01:19:32.368Z,51.60
2022-11-25T01:22:00.171Z,49.50
2022-11-25T01:24:28.804Z,62.00
2022-11-25T01:26:56.704Z,55.50
2022-11-25T01:29:25.338Z,58.43
2022-11-25T01:31:55.408Z,60.33
2022-11-25T01:34:25.395Z,58.53
2022-11-25T01:36:52.828Z,59.50
2022-11-25T01:39:25.626Z,56.43
2022-11-25T01:41:55.911Z,58.20
2022-11-25T01:44:26.151Z,61.50
2022-11-25T01:47:05.638Z,58.13
2022-11-25T01:49:46.723Z,55.43
2022-11-25T01:52:34.606Z,59.53
2022-11-25T01:55:11.578Z,53.03
2022-11-25T01:58:10.312Z,52.40
2022-11-25T02:00:39.836Z,49.50
2022-11-25T02:03:08.436Z,57.17
2022-11-25T02:06:17.068Z,51.37
2022-11-25T02:08:49.793Z,47.60
2022-11-25T02:11:18.588Z,57.60
2022-11-25T02:13:49.223Z,65.27
2022-11-25T02:16:16.399Z,61.47
2022-11-25T02:18:43.908Z,59.43
2022-11-25T02:21:10.994Z,51.43
2022-11-25T02:24:01.373Z,59.63
2022-11-25T02:26:28.812Z,59.47
2022-11-25T02:28:56.964Z,74.37
2022-11-25T02:31:24.529Z,61.70
2022-11-25T02:33:52.042Z,64.80
2022-11-25T02:36:22.740Z,55.13
2022-11-25T02:39:01.658Z,60.03
2022-11-25T02:41:39.241Z,75.87
2022-11-25T02:44:07.701Z,59.53
2022-11-25T02:46:34.864Z,59.60
2022-11-25T02:49:10.991Z,58.93
2022-11-25T02:51:41.614Z,63.47
2022-11-25T02:54:09.415Z,70.17
2022-11-25T02:56:37.444Z,69.53
2022-11-25T02:59:05.165Z,62.03
2022-11-25T03:01:33.288Z,79.03
2022-11-25T03:04:02.637Z,72.73
2022-11-25T03:06:30.857Z,63.57
2022-11-25T03:08:58.693Z,55.93
2022-11-25T03:11:45.724Z,68.23
2022-11-25T03:14:14.238Z,55.33
2022-11-25T03:16:42.563Z,75.80
2022-11-25T03:19:10.233Z,71.97
2022-11-25T03:21:37.305Z,59.83
2022-11-25T03:24:05.582Z,57.43
2022-11-25T03:26:32.754Z,61.90
2022-11-25T03:29:00.473Z,69.97
2022-11-25T03:31:27.781Z,76.87
2022-11-25T03:33:56.025Z,72.60
2022-11-25T03:36:23.126Z,68.53
2022-11-25T03:38:50.743Z,73.30
2022-11-25T03:41:18.062Z,75.27
2022-11-25T03:43:46.151Z,71.80
2022-11-25T03:46:13.426Z,69.67
2022-11-25T03:48:41.008Z,66.30
2022-11-25T03:51:08.078Z,63.50
2022-11-25T03:53:35.629Z,75.23
2022-11-25T03:56:03.159Z,67.00
2022-11-25T03:58:30.605Z,66.17
2022-11-25T04:01:02.302Z,52.90
2022-11-25T04:03:30.790Z,65.27
2022-11-25T04:05:58.627Z,65.20
2022-11-25T04:08:27.433Z,58.63
2022-11-25T04:10:54.711Z,58.60
2022-11-25T04:13:22.329Z,66.63
2022-11-25T04:15:51.153Z,56.63
2022-11-25T04:18:20.251Z,67.70
2022-11-25T04:20:47.509Z,70.50
2022-11-25T04:23:15.071Z,64.03
2022-11-25T04:25:42.280Z,60.67
2022-11-25T04:28:09.991Z,72.57
2022-11-25T04:30:37.644Z,66.20
2022-11-25T04:33:05.260Z,75.03
2022-11-25T04:35:32.509Z,69.83
2022-11-25T04:38:00.222Z,70.23
2022-11-25T04:40:27.330Z,68.40
2022-11-25T04:43:01.551Z,59.43
2022-11-25T04:45:40.678Z,76.13
2022-11-25T04:48:18.903Z,60.77
2022-11-25T04:50:46.179Z,61.60
2022-11-25T04:53:13.867Z,60.60
2022-11-25T04:55:41.716Z,66.83
2022-11-25T04:58:11.340Z,79.40
2022-11-25T05:00:38.831Z,62.07
2022-11-25T05:03:07.090Z,60.83
2022-11-25T05:05:34.213Z,63.97
2022-11-25T05:08:01.828Z,61.17
2022-11-25T05:10:28.971Z,64.20
2022-11-25T05:12:57.206Z,67.80
2022-11-25T05:15:24.302Z,59.07
2022-11-25T05:17:52.117Z,55.60
2022-11-25T05:20:19.294Z,66.37
2022-11-25T05:22:47.973Z,55.70
2022-11-25T05:25:17.766Z,63.37
2022-11-25T05:27:45.395Z,58.10
2022-11-25T05:30:13.324Z,57.23
2022-11-25T05:32:41.232Z,60.23
2022-11-25T05:35:08.799Z,54.63
2022-11-25T05:37:36.273Z,54.27
2022-11-25T05:40:04.735Z,54.50
2022-11-25T05:42:32.224Z,52.93
2022-11-25T05:44:59.554Z,51.97
2022-11-25T05:47:27.138Z,52.27
2022-11-25T05:49:54.397Z,55.73
2022-11-25T05:52:21.969Z,58.83
2022-11-25T05:54:52.176Z,48.07
2022-11-25T05:57:21.911Z,46.37
2022-11-25T05:59:49.104Z,42.93
2022-11-25T06:02:16.707Z,55.47
2022-11-25T06:04:44.296Z,50.27
2022-11-25T06:07:11.869Z,44.27
2022-11-25T06:09:40.098Z,49.93
2022-11-25T06:12:07.931Z,48.47
2022-11-25T06:14:35.275Z,48.93
2022-11-25T06:17:03.199Z,50.07
2022-11-25T06:19:31.320Z,50.03
2022-11-25T06:21:58.792Z,53.40
2022-11-25T06:24:25.921Z,49.30
2022-11-25T06:26:53.526Z,44.97
2022-11-25T06:29:20.743Z,51.53
2022-11-25T06:31:50.712Z,45.50
2022-11-25T06:34:17.941Z,45.60
2022-11-25T06:36:45.415Z,53.20
2022-11-25T06:39:12.839Z,44.47
2022-11-25T06:41:40.372Z,44.80
2022-11-25T06:44:07.495Z,53.23
2022-11-25T06:46:35.339Z,54.37
2022-11-25T06:49:02.761Z,56.07
2022-11-25T06:51:45.075Z,52.00
2022-11-25T06:54:12.841Z,47.63
2022-11-25T06:56:40.334Z,56.27
2022-11-25T06:59:10.605Z,53.93
2022-11-25T07:01:38.490Z,58.97
2022-11-25T07:04:06.449Z,47.20
2022-11-25T07:06:33.857Z,55.30
2022-11-25T07:09:02.405Z,54.57
2022-11-25T07:11:32.460Z,50.30
2022-11-25T07:14:11.269Z,55.27
2022-11-25T07:16:41.233Z,50.20
2022-11-25T07:19:13.347Z,52.27
2022-11-25T07:21:40.761Z,53.60
2022-11-25T07:24:08.655Z,47.83
2022-11-25T07:26:40.725Z,56.57
2022-11-25T07:29:29.405Z,40.83
2022-11-25T07:31:57.919Z,56.80
2022-11-25T07:34:25.759Z,56.70
2022-11-25T07:36:52.989Z,62.47
2022-11-25T07:39:23.095Z,57.37
2022-11-25T07:41:53.316Z,47.40
2022-11-25T07:44:21.592Z,47.17
2022-11-25T07:46:50.325Z,47.30
2022-11-25T07:49:21.213Z,56.20
2022-11-25T07:51:54.870Z,56.23
2022-11-25T07:54:24.728Z,50.23
2022-11-25T07:56:52.362Z,51.27
2022-11-25T07:59:21.974Z,51.60
2022-11-25T08:01:50.799Z,49.57
2022-11-25T08:04:20.854Z,43.60
2022-11-25T08:06:50.858Z,49.43
2022-11-25T08:09:22.265Z,46.93
2022-11-25T08:11:50.005Z,41.43
2022-11-25T08:14:18.038Z,50.93
2022-11-25T08:16:45.571Z,49.07
2022-11-25T08:19:16.342Z,50.50
2022-11-25T08:21:43.994Z,49.77
2022-11-25T08:24:21.001Z,42.93
2022-11-25T08:26:49.283Z,48.20
2022-11-25T08:29:21.320Z,46.60
2022-11-25T08:31:48.572Z,43.53
2022-11-25T08:34:22.940Z,52.73
2022-11-25T08:36:50.105Z,52.87
2022-11-25T08:39:50.454Z,54.20
2022-11-25T08:42:07.267Z,48.10
2022-11-25T08:44:38.652Z,60.73
2022-11-25T08:47:05.806Z,54.63
2022-11-25T08:49:39.154Z,60.73
2022-11-25T08:52:08.896Z,50.30
2022-11-25T08:54:40.017Z,66.33
2022-11-25T08:57:07.306Z,73.43
2022-11-25T08:59:35.731Z,60.57
2022-11-25T09:02:03.437Z,57.80
2022-11-25T09:04:31.051Z,67.10
2022-11-25T09:06:58.292Z,61.27
2022-11-25T09:09:25.848Z,64.33
2022-11-25T09:11:53.106Z,53.03
2022-11-25T09:14:20.826Z,65.63
2022-11-25T09:16:48.157Z,59.93
2022-11-25T09:19:15.743Z,53.17
2022-11-25T09:21:46.000Z,53.57
2022-11-25T09:24:13.824Z,57.87
2022-11-25T09:26:42.412Z,54.53
2022-11-25T09:29:12.260Z,62.23
2022-11-25T09:31:42.834Z,50.20
2022-11-25T09:34:11.068Z,47.77
2022-11-25T09:36:38.637Z,50.33
2022-11-25T09:39:06.564Z,60.17
2022-11-25T09:42:34.629Z,55.23
2022-11-25T09:45:29.611Z,67.57
2022-11-25T09:48:37.347Z,57.37
2022-11-25T09:51:19.996Z,60.03
2022-11-25T09:53:56.869Z,57.20
2022-11-25T09:56:38.387Z,63.37
2022-11-25T09:59:15.158Z,61.63
2022-11-25T10:01:55.887Z,53.57
2022-11-25T10:04:49.522Z,69.30
2022-11-25T10:07:44.257Z,57.53
2022-11-25T10:10:26.736Z,62.83
2022-11-25T10:12:56.994Z,61.17
2022-11-25T10:15:32.848Z,55.87
2022-11-25T10:18:06.476Z,60.17
2022-11-25T10:20:38.454Z,58.70
2022-11-25T10:23:10.554Z,58.13
2022-11-25T10:25:46.695Z,60.10
2022-11-25T10:28:23.750Z,54.90
2022-11-25T10:31:07.140Z,60.20
2022-11-25T10:33:47.258Z,54.87
2022-11-25T10:36:17.635Z,54.63
2022-11-25T10:39:11.356Z,55.27
2022-11-25T10:41:53.197Z,62.30
2022-11-25T10:44:33.943Z,52.40
2022-11-25T10:47:14.351Z,47.23
2022-11-25T10:50:03.782Z,61.67
2022-11-25T10:52:39.943Z,58.37
2022-11-25T10:55:16.155Z,64.23
2022-11-25T10:57:44.461Z,63.23
2022-11-25T11:00:30.194Z,61.47
2022-11-25T11:02:58.502Z,54.03
2022-11-25T11:05:30.845Z,50.83
2022-11-25T11:08:21.186Z,47.97
2022-11-25T11:11:17.325Z,49.53
2022-11-25T11:13:45.518Z,61.33
2022-11-25T11:16:43.539Z,65.63
2022-11-25T11:19:26.356Z,52.90
2022-11-25T11:21:57.417Z,47.90
2022-11-25T11:24:27.019Z,49.67
2022-11-25T11:27:22.508Z,57.73
2022-11-25T11:30:18.742Z,52.93
2022-11-25T11:33:06.478Z,49.87
2022-11-25T11:35:55.820Z,51.27
2022-11-25T11:39:12.936Z,46.30
2022-11-25T11:42:27.356Z,53.87
2022-11-25T11:45:22.943Z,55.33
2022-11-25T11:48:25.015Z,57.40
2022-11-25T11:50:56.020Z,46.77
2022-11-25T11:54:00.349Z,54.57
2022-11-25T11:56:42.103Z,60.67
2022-11-25T11:59:30.898Z,58.23
2022-11-25T12:02:21.798Z,56.13
2022-11-25T12:05:10.451Z,55.23
2022-11-25T12:07:48.252Z,54.33
2022-11-25T12:10:15.879Z,63.33
2022-11-25T12:13:05.811Z,62.03
2022-11-25T12:15:59.222Z,61.93
2022-11-25T12:19:03.329Z,53.73
2022-11-25T12:21:55.376Z,59.40
2022-11-25T12:24:40.429Z,52.17
2022-11-25T12:27:14.593Z,58.40
2022-11-25T12:29:55.771Z,56.97
2022-11-25T12:32:38.727Z,50.87
2022-11-25T12:35:11.969Z,60.83
2022-11-25T12:38:04.645Z,66.00
2022-11-25T12:40:47.066Z,59.30
2022-11-25T12:43:34.748Z,64.57
2022-11-25T12:46:32.684Z,60.70
2022-11-25T12:49:01.156Z,57.80
2022-11-25T12:51:46.511Z,62.80
2022-11-25T12:54:39.154Z,53.50
2022-11-25T12:57:28.254Z,65.43
2022-11-25T13:00:43.058Z,58.03
2022-11-25T13:03:28.756Z,71.40
2022-11-25T13:06:29.988Z,67.33
2022-11-25T13:09:24.039Z,63.47
2022-11-25T13:12:16.194Z,71.07
2022-11-25T13:14:58.884Z,55.80
2022-11-25T13:17:29.740Z,61.90
2022-11-25T13:20:29.260Z,55.43
2022-11-25T13:23:06.111Z,65.23
2022-11-25T13:25:34.195Z,64.83
2022-11-25T13:28:04.657Z,70.30
2022-11-25T13:30:38.419Z,64.90
2022-11-25T13:33:11.630Z,54.27
2022-11-25T13:35:49.521Z,73.10
2022-11-25T13:38:38.252Z,64.13
2022-11-25T13:41:11.474Z,67.83
2022-11-25T13:44:17.727Z,71.37
2022-11-25T13:46:49.086Z,66.73
2022-11-25T13:49:33.436Z,54.70
2022-11-25T13:52:23.710Z,59.83
2022-11-25T13:54:53.964Z,66.83
2022-11-25T13:57:40.478Z,73.60
2022-11-25T14:00:20.198Z,72.90
2022-11-25T14:02:49.961Z,68.80
2022-11-25T14:05:45.624Z,63.57
2022-11-25T14:08:35.194Z,55.70
2022-11-25T14:11:26.588Z,72.57
2022-11-25T14:14:10.054Z,72.30
2022-11-25T14:16:49.330Z,68.10
2022-11-25T14:19:51.198Z,65.97
2022-11-25T14:22:31.137Z,61.10
2022-11-25T14:25:14.029Z,66.67
2022-11-25T14:27:47.016Z,61.63
2022-11-25T14:30:16.919Z,71.13
2022-11-25T14:32:56.161Z,65.40
2022-11-25T14:35:43.699Z,67.53
2022-11-25T14:38:41.985Z,69.33
2022-11-25T14:41:53.184Z,65.50
2022-11-25T14:44:26.251Z,65.97
2022-11-25T14:46:56.287Z,57.97
2022-11-25T14:49:46.622Z,67.60
2022-11-25T14:52:32.848Z,60.40
2022-11-25T14:55:01.802Z,58.93
2022-11-25T14:57:34.449Z,56.50
2022-11-25T15:00:15.565Z,61.90
2022-11-25T15:03:17.897Z,68.53
2022-11-25T15:05:53.552Z,62.20
2022-11-25T15:08:22.441Z,63.30
2022-11-25T15:10:59.486Z,76.50
2022-11-25T15:13:30.261Z,77.70
2022-11-25T15:16:24.638Z,71.93
2022-11-25T15:18:56.740Z,61.03
2022-11-25T15:22:14.598Z,66.53
2022-11-25T15:24:40.767Z,67.73
2022-11-25T15:27:19.889Z,64.73
2022-11-25T15:29:50.079Z,65.07
2022-11-25T15:32:30.457Z,81.10
2022-11-25T15:35:02.741Z,70.43
2022-11-25T15:37:30.269Z,66.43
2022-11-25T15:40:32.801Z,70.73
2022-11-25T15:43:02.102Z,77.77
2022-11-25T15:45:45.637Z,70.20
2022-11-25T15:48:30.289Z,68.80
2022-11-25T15:51:05.213Z,64.37
2022-11-25T15:53:37.702Z,71.00
2022-11-25T15:56:07.551Z,68.13
2022-11-25T15:58:35.506Z,66.70
2022-11-25T16:01:17.582Z,66.53
2022-11-25T16:03:46.522Z,69.90
2022-11-25T16:06:32.611Z,69.67
2022-11-25T16:09:02.031Z,78.57
2022-11-25T16:11:33.821Z,60.20
2022-11-25T16:14:29.237Z,62.20
2022-11-25T16:17:11.541Z,74.03
2022-11-25T16:19:42.830Z,73.00
2022-11-25T16:22:17.521Z,69.90
2022-11-25T16:25:01.759Z,73.17
2022-11-25T16:27:31.527Z,63.93
2022-11-25T16:30:06.112Z,57.83
2022-11-25T16:32:34.850Z,68.30
2022-11-25T16:35:21.273Z,69.57
2022-11-25T16:37:49.785Z,66.77
2022-11-25T16:40:19.133Z,62.23
2022-11-25T16:42:48.741Z,67.80
2022-11-25T16:45:25.090Z,72.20
2022-11-25T16:47:52.742Z,61.87
2022-11-25T16:50:21.146Z,68.83
2022-11-25T16:52:50.270Z,78.07
2022-11-25T16:55:18.749Z,74.17
2022-11-25T16:57:46.855Z,79.73
2022-11-25T17:00:17.495Z,69.30
2022-11-25T17:02:45.864Z,62.53
2022-11-25T17:05:23.708Z,65.80
2022-11-25T17:07:52.248Z,72.50
2022-11-25T17:10:20.817Z,65.87
2022-11-25T17:12:49.486Z,71.80
2022-11-25T17:15:24.734Z,63.50
2022-11-25T17:17:54.511Z,63.73
2022-11-25T17:20:27.034Z,72.77
2022-11-25T17:22:55.757Z,63.90
2022-11-25T17:25:25.792Z,83.23
2022-11-25T17:27:54.910Z,63.93
2022-11-25T17:30:23.900Z,69.70
2022-11-25T17:33:06.673Z,69.10
2022-11-25T17:35:37.922Z,61.33
2022-11-25T17:38:19.257Z,67.70
2022-11-25T17:40:47.273Z,69.03
2022-11-25T17:43:17.252Z,72.57
2022-11-25T17:45:46.367Z,74.87
2022-11-25T17:48:16.438Z,78.63
2022-11-25T17:50:44.253Z,70.13
2022-11-25T17:53:12.489Z,70.53
2022-11-25T17:55:41.604Z,74.63
2022-11-25T17:58:12.440Z,68.50
2022-11-25T18:00:42.699Z,70.03
2022-11-25T18:03:13.039Z,63.00
2022-11-25T18:05:40.445Z,71.00
2022-11-25T18:08:08.455Z,67.33
2022-11-25T18:10:35.865Z,73.57
2022-11-25T18:13:05.012Z,69.77
2022-11-25T18:15:34.516Z,67.97
2022-11-25T18:18:16.338Z,81.20
2022-11-25T18:20:44.227Z,69.20
2022-11-25T18:23:11.992Z,67.93
2022-11-25T18:25:40.722Z,71.20
2022-11-25T18:28:14.103Z,71.30
2022-11-25T18:30:41.406Z,82.53
2022-11-25T18:33:14.540Z,71.50
2022-11-25T18:35:43.973Z,75.20
2022-11-25T18:38:12.719Z,87.60
2022-11-25T18:40:42.976Z,83.83
2022-11-25T18:43:17.288Z,78.43
2022-11-25T18:45:46.000Z,81.40
2022-11-25T18:48:20.540Z,81.13
2022-11-25T18:50:49.353Z,97.13
2022-11-25T18:53:17.541Z,92.47
2022-11-25T18:55:45.364Z,101.20
2022-11-25T18:58:41.712Z,99.20
2022-11-25T19:01:14.158Z,84.93
2022-11-25T19:03:43.300Z,96.40
2022-11-25T19:06:15.655Z,86.63
2022-11-25T19:08:43.918Z,80.90
2022-11-25T19:11:19.074Z,85.87
2022-11-25T19:13:51.042Z,97.20
2022-11-25T19:16:21.337Z,96.57
2022-11-25T19:18:49.697Z,101.80
2022-11-25T19:21:19.353Z,93.73
2022-11-25T19:23:48.051Z,96.50
2022-11-25T19:26:19.227Z,97.13
2022-11-25T19:28:50.130Z,98.50
2022-11-25T19:31:19.577Z,87.57
2022-11-25T19:33:51.332Z,107.27
2022-11-25T19:36:25.455Z,99.77
2022-11-25T19:38:54.435Z,87.27
2022-11-25T19:41:22.017Z,99.50
2022-11-25T19:43:49.684Z,94.63
2022-11-25T19:46:19.878Z,93.93
2022-11-25T19:48:54.360Z,98.73
2022-11-25T19:51:24.927Z,89.30
2022-11-25T19:53:53.205Z,105.73
2022-11-25T19:56:27.098Z,94.43
2022-11-25T19:58:54.968Z,99.53
2022-11-25T20:01:33.790Z,98.67
2022-11-25T20:04:03.786Z,105.17
2022-11-25T20:06:32.300Z,99.03
2022-11-25T20:09:06.476Z,86.63
2022-11-25T20:11:36.710Z,97.33
2022-11-25T20:14:07.845Z,106.37
2022-11-25T20:16:38.010Z,100.70
2022-11-25T20:19:07.487Z,98.33
2022-11-25T20:21:39.974Z,100.70
2022-11-25T20:24:15.239Z,123.33
2022-11-25T20:26:46.132Z,118.63
2022-11-25T20:29:25.866Z,123.10
2022-11-25T20:32:01.690Z,109.17
2022-11-25T20:34:38.781Z,104.87
2022-11-25T20:37:12.715Z,166.77
2022-11-25T20:39:41.416Z,137.27
2022-11-25T20:42:12.245Z,129.70
2022-11-25T20:44:40.484Z,96.53
2022-11-25T20:47:17.454Z,123.40
2022-11-25T20:49:46.132Z,122.93
2022-11-25T20:52:29.877Z,116.27
2022-11-25T20:54:58.212Z,102.10
2022-11-25T20:57:25.973Z,118.13
2022-11-25T20:59:53.681Z,95.17
2022-11-25T21:02:21.926Z,137.73
2022-11-25T21:04:49.812Z,108.67
2022-11-25T21:07:18.071Z,105.37
2022-11-25T21:09:45.830Z,117.17
2022-11-25T21:12:18.856Z,107.17
2022-11-25T21:14:47.858Z,129.50
2022-11-25T21:17:15.467Z,125.83
2022-11-25T21:19:43.457Z,133.47
2022-11-25T21:22:15.142Z,145.13
2022-11-25T21:24:43.636Z,138.63
2022-11-25T21:27:14.980Z,118.67
2022-11-25T21:29:44.030Z,111.60
2022-11-25T21:32:31.509Z,129.47
2022-11-25T21:34:59.399Z,148.60
2022-11-25T21:37:40.838Z,121.90
2022-11-25T21:40:30.698Z,115.07
2022-11-25T21:42:58.223Z,139.93
2022-11-25T21:45:25.882Z,150.40
2022-11-25T21:47:54.577Z,132.90
2022-11-25T21:50:22.514Z,174.93
2022-11-25T21:52:50.022Z,151.17
2022-11-25T21:55:17.950Z,149.70
2022-11-25T21:57:45.524Z,124.53
2022-11-25T22:00:25.012Z,126.93
2022-11-25T22:02:53.897Z,115.80
2022-11-25T22:05:25.866Z,160.37
2022-11-25T22:07:55.167Z,144.40
2022-11-25T22:10:23.200Z,152.03
2022-11-25T22:12:50.657Z,152.47
2022-11-25T22:15:23.466Z,145.77
2022-11-25T22:17:57.694Z,161.67
2022-11-25T22:20:30.775Z,149.30
2022-11-25T22:22:57.950Z,138.80
2022-11-25T22:25:27.691Z,143.13
2022-11-25T22:27:55.157Z,131.60
2022-11-25T22:30:24.039Z,132.27
2022-11-25T22:33:01.098Z,108.37
2022-11-25T22:35:29.305Z,112.13
2022-11-25T22:37:56.602Z,141.67
2022-11-25T22:40:25.094Z,126.73
2022-11-25T22:42:55.151Z,102.57
2022-11-25T22:45:41.286Z,121.67
2022-11-25T22:48:10.195Z,127.23
2022-11-25T22:50:37.964Z,143.93
2022-11-25T22:53:16.798Z,132.43
2022-11-25T22:55:46.217Z,142.03
2022-11-25T22:58:15.303Z,140.83
2022-11-25T23:00:46.654Z,134.67
2022-11-25T23:03:25.552Z,143.70
2022-11-25T23:05:55.466Z,141.07
2022-11-25T23:08:26.423Z,145.47
2022-11-25T23:10:56.405Z,134.87
2022-11-25T23:13:24.826Z,139.13
2022-11-25T23:16:01.470Z,119.73
2022-11-25T23:18:41.585Z,128.47
2022-11-25T23:21:24.368Z,138.43
2022-11-25T23:23:52.941Z,130.47
2022-11-25T23:26:21.452Z,127.83
2022-11-25T23:28:49.902Z,126.40
2022-11-25T23:31:18.714Z,128.03
2022-11-25T23:33:51.811Z,153.60
2022-11-25T23:36:36.116Z,129.03
2022-11-25T23:39:04.343Z,140.73
2022-11-25T23:41:34.318Z,154.30
2022-11-25T23:44:26.756Z,166.67
2022-11-25T23:47:03.159Z,136.13
2022-11-25T23:49:43.535Z,154.30
2022-11-25T23:52:16.409Z,122.50
2022-11-25T23:54:47.661Z,132.50
2022-11-25T23:57:21.722Z,139.20
2022-11-25T23:59:50.586Z,159.90
